sensor_id;sensor_type;location;lat;lon;timestamp;P1;durP1;ratioP1;P2;durP2;ratioP2
5345;SDS011;2695;49.444;11.054;2023-11-21T00:00:04;3.57;;;1.50;;
5345;SDS011;2695;49.444;11.054;2023-11-21T00:02:38;3.27;;;2.23;;
5345;SDS011;2695;49.444;11.054;2023-11-21T00:05:07;2.50;;;1.53;;
5345;SDS011;2695;49.444;11.054;2023-11-21T00:07:36;3.30;;;1.43;;
5345;SDS011;2695;49.444;11.054;2023-11-21T00:10:05;2.80;;;1.60;;
5345;SDS011;2695;49.444;11.054;2023-11-21T00:12:37;1.53;;;1.43;;
5345;SDS011;2695;49.444;11.054;2023-11-21T00:15:08;4.00;;;1.40;;
5345;SDS011;2695;49.444;11.054;2023-11-21T00:17:38;1.80;;;1.50;;
5345;SDS011;2695;49.444;11.054;2023-11-21T00:20:07;2.17;;;1.10;;
5345;SDS011;2695;49.444;11.054;2023-11-21T00:22:39;2.60;;;1.37;;
5345;SDS011;2695;49.444;11.054;2023-11-21T00:25:09;1.27;;;1.00;;
5345;SDS011;2695;49.444;11.054;2023-11-21T00:27:37;3.00;;;2.17;;
5345;SDS011;2695;49.444;11.054;2023-11-21T00:30:06;1.27;;;1.10;;
5345;SDS011;2695;49.444;11.054;2023-11-21T00:32:35;1.67;;;0.80;;
5345;SDS011;2695;49.444;11.054;2023-11-21T00:35:04;3.33;;;0.90;;
5345;SDS011;2695;49.444;11.054;2023-11-21T00:37:33;1.93;;;0.90;;
5345;SDS011;2695;49.444;11.054;2023-11-21T00:40:01;2.07;;;1.40;;
5345;SDS011;2695;49.444;11.054;2023-11-21T00:42:34;2.30;;;1.83;;
5345;SDS011;2695;49.444;11.054;2023-11-21T00:45:02;6.47;;;1.90;;
5345;SDS011;2695;49.444;11.054;2023-11-21T00:47:31;3.30;;;1.43;;
5345;SDS011;2695;49.444;11.054;2023-11-21T00:49:59;7.60;;;2.03;;
5345;SDS011;2695;49.444;11.054;2023-11-21T00:52:27;2.77;;;1.70;;
5345;SDS011;2695;49.444;11.054;2023-11-21T00:54:55;1.83;;;1.33;;
5345;SDS011;2695;49.444;11.054;2023-11-21T00:57:26;3.37;;;2.03;;
5345;SDS011;2695;49.444;11.054;2023-11-21T00:59:55;3.67;;;2.10;;
5345;SDS011;2695;49.444;11.054;2023-11-21T01:02:23;2.37;;;1.50;;
5345;SDS011;2695;49.444;11.054;2023-11-21T01:04:52;2.77;;;1.40;;
5345;SDS011;2695;49.444;11.054;2023-11-21T01:07:20;2.23;;;1.90;;
5345;SDS011;2695;49.444;11.054;2023-11-21T01:09:49;5.10;;;1.53;;
5345;SDS011;2695;49.444;11.054;2023-11-21T01:12:17;1.97;;;1.40;;
5345;SDS011;2695;49.444;11.054;2023-11-21T01:14:45;4.50;;;1.50;;
5345;SDS011;2695;49.444;11.054;2023-11-21T01:17:14;2.90;;;1.57;;
5345;SDS011;2695;49.444;11.054;2023-11-21T01:19:43;3.07;;;1.30;;
5345;SDS011;2695;49.444;11.054;2023-11-21T01:22:11;5.23;;;2.40;;
5345;SDS011;2695;49.444;11.054;2023-11-21T01:24:39;4.60;;;1.57;;
5345;SDS011;2695;49.444;11.054;2023-11-21T01:27:07;2.97;;;2.07;;
5345;SDS011;2695;49.444;11.054;2023-11-21T01:29:35;6.53;;;1.30;;
5345;SDS011;2695;49.444;11.054;2023-11-21T01:32:03;7.70;;;1.20;;
5345;SDS011;2695;49.444;11.054;2023-11-21T01:34:35;1.73;;;1.63;;
5345;SDS011;2695;49.444;11.054;2023-11-21T01:37:04;1.67;;;1.43;;
5345;SDS011;2695;49.444;11.054;2023-11-21T01:39:32;1.80;;;1.20;;
5345;SDS011;2695;49.444;11.054;2023-11-21T01:42:00;3.63;;;2.00;;
5345;SDS011;2695;49.444;11.054;2023-11-21T01:44:28;2.60;;;1.47;;
5345;SDS011;2695;49.444;11.054;2023-11-21T01:46:56;2.17;;;1.43;;
5345;SDS011;2695;49.444;11.054;2023-11-21T01:49:24;3.60;;;1.60;;
5345;SDS011;2695;49.444;11.054;2023-11-21T01:51:54;5.30;;;1.70;;
5345;SDS011;2695;49.444;11.054;2023-11-21T01:54:23;3.60;;;1.40;;
5345;SDS011;2695;49.444;11.054;2023-11-21T01:56:51;5.40;;;1.50;;
5345;SDS011;2695;49.444;11.054;2023-11-21T01:59:19;3.50;;;1.43;;
5345;SDS011;2695;49.444;11.054;2023-11-21T02:01:48;2.33;;;1.60;;
5345;SDS011;2695;49.444;11.054;2023-11-21T02:04:17;7.13;;;1.47;;
5345;SDS011;2695;49.444;11.054;2023-11-21T02:06:46;2.57;;;1.43;;
5345;SDS011;2695;49.444;11.054;2023-11-21T02:09:15;3.97;;;1.97;;
5345;SDS011;2695;49.444;11.054;2023-11-21T02:11:44;3.50;;;2.00;;
5345;SDS011;2695;49.444;11.054;2023-11-21T02:14:11;3.30;;;2.00;;
5345;SDS011;2695;49.444;11.054;2023-11-21T02:16:40;1.90;;;1.23;;
5345;SDS011;2695;49.444;11.054;2023-11-21T02:19:10;3.07;;;1.10;;
5345;SDS011;2695;49.444;11.054;2023-11-21T02:21:40;3.87;;;1.50;;
5345;SDS011;2695;49.444;11.054;2023-11-21T02:24:12;2.93;;;1.20;;
5345;SDS011;2695;49.444;11.054;2023-11-21T02:26:40;2.50;;;1.10;;
5345;SDS011;2695;49.444;11.054;2023-11-21T02:29:08;3.63;;;1.33;;
5345;SDS011;2695;49.444;11.054;2023-11-21T02:31:38;5.23;;;1.20;;
5345;SDS011;2695;49.444;11.054;2023-11-21T02:34:14;2.80;;;1.07;;
5345;SDS011;2695;49.444;11.054;2023-11-21T02:36:42;1.67;;;1.10;;
5345;SDS011;2695;49.444;11.054;2023-11-21T02:39:10;3.40;;;1.43;;
5345;SDS011;2695;49.444;11.054;2023-11-21T02:41:40;3.73;;;1.60;;
5345;SDS011;2695;49.444;11.054;2023-11-21T02:44:08;6.20;;;1.67;;
5345;SDS011;2695;49.444;11.054;2023-11-21T02:46:37;3.80;;;1.30;;
5345;SDS011;2695;49.444;11.054;2023-11-21T02:49:06;2.60;;;1.27;;
5345;SDS011;2695;49.444;11.054;2023-11-21T02:51:36;6.83;;;1.70;;
5345;SDS011;2695;49.444;11.054;2023-11-21T02:54:05;0.87;;;0.83;;
5345;SDS011;2695;49.444;11.054;2023-11-21T02:56:35;3.20;;;2.27;;
5345;SDS011;2695;49.444;11.054;2023-11-21T02:59:03;2.23;;;1.50;;
5345;SDS011;2695;49.444;11.054;2023-11-21T03:01:31;3.63;;;1.63;;
5345;SDS011;2695;49.444;11.054;2023-11-21T03:03:59;3.50;;;2.13;;
5345;SDS011;2695;49.444;11.054;2023-11-21T03:06:28;5.63;;;1.70;;
5345;SDS011;2695;49.444;11.054;2023-11-21T03:08:56;1.73;;;1.63;;
5345;SDS011;2695;49.444;11.054;2023-11-21T03:11:24;4.50;;;1.50;;
5345;SDS011;2695;49.444;11.054;2023-11-21T03:13:53;3.73;;;1.50;;
5345;SDS011;2695;49.444;11.054;2023-11-21T03:16:21;3.17;;;1.50;;
5345;SDS011;2695;49.444;11.054;2023-11-21T03:18:49;4.03;;;1.30;;
5345;SDS011;2695;49.444;11.054;2023-11-21T03:21:21;3.63;;;2.23;;
5345;SDS011;2695;49.444;11.054;2023-11-21T03:23:49;2.17;;;1.13;;
5345;SDS011;2695;49.444;11.054;2023-11-21T03:26:19;3.47;;;1.83;;
5345;SDS011;2695;49.444;11.054;2023-11-21T03:28:47;1.50;;;1.00;;
5345;SDS011;2695;49.444;11.054;2023-11-21T03:31:17;1.90;;;1.17;;
5345;SDS011;2695;49.444;11.054;2023-11-21T03:33:45;2.03;;;1.30;;
5345;SDS011;2695;49.444;11.054;2023-11-21T03:36:13;2.10;;;1.33;;
5345;SDS011;2695;49.444;11.054;2023-11-21T03:38:42;3.13;;;1.43;;
5345;SDS011;2695;49.444;11.054;2023-11-21T03:41:10;2.63;;;1.30;;
5345;SDS011;2695;49.444;11.054;2023-11-21T03:43:38;3.00;;;1.50;;
5345;SDS011;2695;49.444;11.054;2023-11-21T03:46:06;2.60;;;1.30;;
5345;SDS011;2695;49.444;11.054;2023-11-21T03:48:36;1.60;;;1.50;;
5345;SDS011;2695;49.444;11.054;2023-11-21T03:51:04;5.17;;;1.80;;
5345;SDS011;2695;49.444;11.054;2023-11-21T03:53:32;1.33;;;1.17;;
5345;SDS011;2695;49.444;11.054;2023-11-21T03:56:02;4.33;;;1.87;;
5345;SDS011;2695;49.444;11.054;2023-11-21T03:58:30;10.87;;;2.20;;
5345;SDS011;2695;49.444;11.054;2023-11-21T04:00:58;3.30;;;1.27;;
5345;SDS011;2695;49.444;11.054;2023-11-21T04:03:26;1.47;;;1.37;;
5345;SDS011;2695;49.444;11.054;2023-11-21T04:05:56;1.33;;;1.23;;
5345;SDS011;2695;49.444;11.054;2023-11-21T04:08:24;2.77;;;1.97;;
5345;SDS011;2695;49.444;11.054;2023-11-21T04:10:52;1.77;;;1.50;;
5345;SDS011;2695;49.444;11.054;2023-11-21T04:13:21;2.80;;;1.30;;
5345;SDS011;2695;49.444;11.054;2023-11-21T04:15:50;2.90;;;1.40;;
5345;SDS011;2695;49.444;11.054;2023-11-21T04:18:17;4.67;;;1.50;;
5345;SDS011;2695;49.444;11.054;2023-11-21T04:20:45;4.40;;;1.47;;
5345;SDS011;2695;49.444;11.054;2023-11-21T04:23:15;4.53;;;2.13;;
5345;SDS011;2695;49.444;11.054;2023-11-21T04:25:43;1.77;;;1.60;;
5345;SDS011;2695;49.444;11.054;2023-11-21T04:28:11;2.77;;;1.80;;
5345;SDS011;2695;49.444;11.054;2023-11-21T04:30:39;4.70;;;1.20;;
5345;SDS011;2695;49.444;11.054;2023-11-21T04:33:07;2.17;;;1.67;;
5345;SDS011;2695;49.444;11.054;2023-11-21T04:35:35;3.33;;;1.60;;
5345;SDS011;2695;49.444;11.054;2023-11-21T04:38:03;2.27;;;1.43;;
5345;SDS011;2695;49.444;11.054;2023-11-21T04:40:32;2.07;;;1.57;;
5345;SDS011;2695;49.444;11.054;2023-11-21T04:43:01;2.80;;;1.10;;
5345;SDS011;2695;49.444;11.054;2023-11-21T04:45:30;2.83;;;1.43;;
5345;SDS011;2695;49.444;11.054;2023-11-21T04:47:58;8.90;;;2.07;;
5345;SDS011;2695;49.444;11.054;2023-11-21T04:50:26;2.70;;;1.40;;
5345;SDS011;2695;49.444;11.054;2023-11-21T04:52:54;2.10;;;1.63;;
5345;SDS011;2695;49.444;11.054;2023-11-21T04:55:22;3.10;;;1.87;;
5345;SDS011;2695;49.444;11.054;2023-11-21T04:57:53;3.00;;;1.47;;
5345;SDS011;2695;49.444;11.054;2023-11-21T05:00:21;1.70;;;1.60;;
5345;SDS011;2695;49.444;11.054;2023-11-21T05:02:49;3.27;;;1.33;;
5345;SDS011;2695;49.444;11.054;2023-11-21T05:05:19;3.20;;;1.13;;
5345;SDS011;2695;49.444;11.054;2023-11-21T05:07:47;1.40;;;1.20;;
5345;SDS011;2695;49.444;11.054;2023-11-21T05:10:15;3.67;;;1.63;;
5345;SDS011;2695;49.444;11.054;2023-11-21T05:12:43;5.30;;;1.20;;
5345;SDS011;2695;49.444;11.054;2023-11-21T05:15:15;5.40;;;1.70;;
5345;SDS011;2695;49.444;11.054;2023-11-21T05:17:43;3.47;;;1.80;;
5345;SDS011;2695;49.444;11.054;2023-11-21T05:20:13;3.03;;;1.60;;
5345;SDS011;2695;49.444;11.054;2023-11-21T05:22:44;3.13;;;1.40;;
5345;SDS011;2695;49.444;11.054;2023-11-21T05:25:12;3.00;;;1.40;;
5345;SDS011;2695;49.444;11.054;2023-11-21T05:27:40;2.30;;;1.23;;
5345;SDS011;2695;49.444;11.054;2023-11-21T05:30:09;2.87;;;1.83;;
5345;SDS011;2695;49.444;11.054;2023-11-21T05:32:40;1.67;;;1.50;;
5345;SDS011;2695;49.444;11.054;2023-11-21T05:35:10;1.80;;;1.50;;
5345;SDS011;2695;49.444;11.054;2023-11-21T05:37:43;4.00;;;1.57;;
5345;SDS011;2695;49.444;11.054;2023-11-21T05:40:12;2.60;;;2.17;;
5345;SDS011;2695;49.444;11.054;2023-11-21T05:42:40;3.53;;;2.50;;
5345;SDS011;2695;49.444;11.054;2023-11-21T05:45:12;6.13;;;2.20;;
5345;SDS011;2695;49.444;11.054;2023-11-21T05:47:43;2.50;;;1.77;;
5345;SDS011;2695;49.444;11.054;2023-11-21T05:50:13;2.03;;;1.83;;
5345;SDS011;2695;49.444;11.054;2023-11-21T05:52:42;3.83;;;2.10;;
5345;SDS011;2695;49.444;11.054;2023-11-21T05:55:11;5.67;;;1.80;;
5345;SDS011;2695;49.444;11.054;2023-11-21T05:57:40;3.07;;;1.83;;
5345;SDS011;2695;49.444;11.054;2023-11-21T06:00:10;3.87;;;2.47;;
5345;SDS011;2695;49.444;11.054;2023-11-21T06:02:46;2.57;;;1.77;;
5345;SDS011;2695;49.444;11.054;2023-11-21T06:05:17;2.60;;;1.97;;
5345;SDS011;2695;49.444;11.054;2023-11-21T06:07:46;5.63;;;2.23;;
5345;SDS011;2695;49.444;11.054;2023-11-21T06:10:14;2.90;;;1.90;;
5345;SDS011;2695;49.444;11.054;2023-11-21T06:12:44;2.90;;;1.80;;
5345;SDS011;2695;49.444;11.054;2023-11-21T06:15:12;3.10;;;1.80;;
5345;SDS011;2695;49.444;11.054;2023-11-21T06:17:40;11.50;;;2.37;;
5345;SDS011;2695;49.444;11.054;2023-11-21T06:20:12;4.20;;;2.63;;
5345;SDS011;2695;49.444;11.054;2023-11-21T06:22:41;7.20;;;2.97;;
5345;SDS011;2695;49.444;11.054;2023-11-21T06:25:10;9.23;;;3.10;;
5345;SDS011;2695;49.444;11.054;2023-11-21T06:27:40;5.27;;;3.10;;
5345;SDS011;2695;49.444;11.054;2023-11-21T06:30:11;6.80;;;3.73;;
5345;SDS011;2695;49.444;11.054;2023-11-21T06:32:40;5.03;;;3.23;;
5345;SDS011;2695;49.444;11.054;2023-11-21T06:35:14;3.10;;;2.50;;
5345;SDS011;2695;49.444;11.054;2023-11-21T06:37:43;9.00;;;2.50;;
5345;SDS011;2695;49.444;11.054;2023-11-21T06:40:15;4.43;;;2.47;;
5345;SDS011;2695;49.444;11.054;2023-11-21T06:42:45;4.07;;;2.60;;
5345;SDS011;2695;49.444;11.054;2023-11-21T06:45:14;5.53;;;2.50;;
5345;SDS011;2695;49.444;11.054;2023-11-21T06:47:43;7.47;;;2.90;;
5345;SDS011;2695;49.444;11.054;2023-11-21T06:50:13;7.13;;;3.00;;
5345;SDS011;2695;49.444;11.054;2023-11-21T06:52:42;10.37;;;3.70;;
5345;SDS011;2695;49.444;11.054;2023-11-21T06:55:10;5.00;;;3.40;;
5345;SDS011;2695;49.444;11.054;2023-11-21T06:57:39;4.70;;;3.03;;
5345;SDS011;2695;49.444;11.054;2023-11-21T07:00:08;3.97;;;2.87;;
5345;SDS011;2695;49.444;11.054;2023-11-21T07:02:37;5.23;;;3.00;;
5345;SDS011;2695;49.444;11.054;2023-11-21T07:05:06;7.10;;;3.00;;
5345;SDS011;2695;49.444;11.054;2023-11-21T07:07:36;4.20;;;2.60;;
5345;SDS011;2695;49.444;11.054;2023-11-21T07:10:05;3.67;;;2.20;;
5345;SDS011;2695;49.444;11.054;2023-11-21T07:12:34;5.90;;;3.50;;
5345;SDS011;2695;49.444;11.054;2023-11-21T07:15:02;3.10;;;2.30;;
5345;SDS011;2695;49.444;11.054;2023-11-21T07:17:31;4.40;;;3.57;;
5345;SDS011;2695;49.444;11.054;2023-11-21T07:20:04;7.43;;;2.60;;
5345;SDS011;2695;49.444;11.054;2023-11-21T07:22:33;4.13;;;2.30;;
5345;SDS011;2695;49.444;11.054;2023-11-21T07:25:03;3.37;;;2.43;;
5345;SDS011;2695;49.444;11.054;2023-11-21T07:27:31;3.33;;;2.80;;
5345;SDS011;2695;49.444;11.054;2023-11-21T07:30:02;3.03;;;2.40;;
5345;SDS011;2695;49.444;11.054;2023-11-21T07:32:31;5.23;;;3.20;;
5345;SDS011;2695;49.444;11.054;2023-11-21T07:35:00;7.80;;;2.80;;
5345;SDS011;2695;49.444;11.054;2023-11-21T07:37:28;7.37;;;2.63;;
5345;SDS011;2695;49.444;11.054;2023-11-21T07:39:56;4.67;;;2.77;;
5345;SDS011;2695;49.444;11.054;2023-11-21T07:42:26;4.10;;;3.10;;
5345;SDS011;2695;49.444;11.054;2023-11-21T07:44:54;4.30;;;3.13;;
5345;SDS011;2695;49.444;11.054;2023-11-21T07:47:22;7.43;;;2.60;;
5345;SDS011;2695;49.444;11.054;2023-11-21T07:49:54;6.03;;;2.97;;
5345;SDS011;2695;49.444;11.054;2023-11-21T07:52:23;4.27;;;3.27;;
5345;SDS011;2695;49.444;11.054;2023-11-21T07:54:51;8.50;;;2.50;;
5345;SDS011;2695;49.444;11.054;2023-11-21T07:57:19;3.93;;;3.20;;
5345;SDS011;2695;49.444;11.054;2023-11-21T07:59:48;9.13;;;4.40;;
5345;SDS011;2695;49.444;11.054;2023-11-21T08:02:17;4.60;;;2.90;;
5345;SDS011;2695;49.444;11.054;2023-11-21T08:04:45;8.90;;;3.30;;
5345;SDS011;2695;49.444;11.054;2023-11-21T08:07:17;9.70;;;3.50;;
5345;SDS011;2695;49.444;11.054;2023-11-21T08:09:45;4.13;;;3.03;;
5345;SDS011;2695;49.444;11.054;2023-11-21T08:12:15;7.63;;;3.40;;
5345;SDS011;2695;49.444;11.054;2023-11-21T08:14:44;6.30;;;3.70;;
5345;SDS011;2695;49.444;11.054;2023-11-21T08:17:13;5.97;;;3.33;;
5345;SDS011;2695;49.444;11.054;2023-11-21T08:19:44;4.50;;;3.07;;
5345;SDS011;2695;49.444;11.054;2023-11-21T08:22:15;4.33;;;3.13;;
5345;SDS011;2695;49.444;11.054;2023-11-21T08:24:44;3.77;;;3.07;;
5345;SDS011;2695;49.444;11.054;2023-11-21T08:27:13;4.80;;;3.40;;
5345;SDS011;2695;49.444;11.054;2023-11-21T08:29:42;4.10;;;3.53;;
5345;SDS011;2695;49.444;11.054;2023-11-21T08:32:10;6.67;;;3.23;;
5345;SDS011;2695;49.444;11.054;2023-11-21T08:34:39;3.47;;;3.10;;
5345;SDS011;2695;49.444;11.054;2023-11-21T08:37:09;6.80;;;3.57;;
5345;SDS011;2695;49.444;11.054;2023-11-21T08:39:38;5.70;;;3.47;;
5345;SDS011;2695;49.444;11.054;2023-11-21T08:42:08;6.43;;;3.43;;
5345;SDS011;2695;49.444;11.054;2023-11-21T08:44:36;4.27;;;3.63;;
5345;SDS011;2695;49.444;11.054;2023-11-21T08:47:05;6.33;;;3.70;;
5345;SDS011;2695;49.444;11.054;2023-11-21T08:49:34;4.57;;;3.77;;
5345;SDS011;2695;49.444;11.054;2023-11-21T08:52:04;4.67;;;3.83;;
5345;SDS011;2695;49.444;11.054;2023-11-21T08:54:33;4.80;;;3.20;;
5345;SDS011;2695;49.444;11.054;2023-11-21T08:57:01;5.33;;;3.83;;
5345;SDS011;2695;49.444;11.054;2023-11-21T08:59:29;4.30;;;3.20;;
5345;SDS011;2695;49.444;11.054;2023-11-21T09:01:57;4.63;;;3.50;;
5345;SDS011;2695;49.444;11.054;2023-11-21T09:04:26;6.43;;;5.17;;
5345;SDS011;2695;49.444;11.054;2023-11-21T09:06:54;5.20;;;4.30;;
5345;SDS011;2695;49.444;11.054;2023-11-21T09:09:23;5.43;;;4.07;;
5345;SDS011;2695;49.444;11.054;2023-11-21T09:11:51;10.00;;;5.77;;
5345;SDS011;2695;49.444;11.054;2023-11-21T09:14:19;5.17;;;3.90;;
5345;SDS011;2695;49.444;11.054;2023-11-21T09:16:47;6.23;;;5.17;;
5345;SDS011;2695;49.444;11.054;2023-11-21T09:19:17;5.00;;;4.23;;
5345;SDS011;2695;49.444;11.054;2023-11-21T09:21:45;8.33;;;5.17;;
5345;SDS011;2695;49.444;11.054;2023-11-21T09:24:13;8.17;;;5.90;;
5345;SDS011;2695;49.444;11.054;2023-11-21T09:26:43;7.50;;;5.43;;
5345;SDS011;2695;49.444;11.054;2023-11-21T09:29:11;11.10;;;6.20;;
5345;SDS011;2695;49.444;11.054;2023-11-21T09:31:40;16.13;;;6.40;;
5345;SDS011;2695;49.444;11.054;2023-11-21T09:34:08;13.37;;;6.47;;
5345;SDS011;2695;49.444;11.054;2023-11-21T09:36:37;10.43;;;6.30;;
5345;SDS011;2695;49.444;11.054;2023-11-21T09:39:05;16.47;;;6.67;;
5345;SDS011;2695;49.444;11.054;2023-11-21T09:41:37;11.90;;;5.40;;
5345;SDS011;2695;49.444;11.054;2023-11-21T09:44:13;9.90;;;5.50;;
5345;SDS011;2695;49.444;11.054;2023-11-21T09:46:46;9.50;;;4.10;;
5345;SDS011;2695;49.444;11.054;2023-11-21T09:49:16;4.70;;;4.10;;
5345;SDS011;2695;49.444;11.054;2023-11-21T09:51:49;6.43;;;4.40;;
5345;SDS011;2695;49.444;11.054;2023-11-21T09:54:21;6.03;;;4.27;;
5345;SDS011;2695;49.444;11.054;2023-11-21T09:56:50;5.60;;;3.73;;
5345;SDS011;2695;49.444;11.054;2023-11-21T09:59:19;4.83;;;3.97;;
5345;SDS011;2695;49.444;11.054;2023-11-21T10:01:47;7.73;;;4.70;;
5345;SDS011;2695;49.444;11.054;2023-11-21T10:04:17;5.20;;;4.67;;
5345;SDS011;2695;49.444;11.054;2023-11-21T10:06:46;6.40;;;4.30;;
5345;SDS011;2695;49.444;11.054;2023-11-21T10:09:16;9.23;;;4.80;;
5345;SDS011;2695;49.444;11.054;2023-11-21T10:11:47;7.27;;;4.40;;
5345;SDS011;2695;49.444;11.054;2023-11-21T10:14:17;6.17;;;4.63;;
5345;SDS011;2695;49.444;11.054;2023-11-21T10:16:52;8.17;;;5.00;;
5345;SDS011;2695;49.444;11.054;2023-11-21T10:19:20;7.17;;;5.03;;
5345;SDS011;2695;49.444;11.054;2023-11-21T10:21:50;7.40;;;4.60;;
5345;SDS011;2695;49.444;11.054;2023-11-21T10:24:18;5.43;;;4.57;;
5345;SDS011;2695;49.444;11.054;2023-11-21T10:26:46;9.57;;;5.30;;
5345;SDS011;2695;49.444;11.054;2023-11-21T10:29:20;8.10;;;4.83;;
5345;SDS011;2695;49.444;11.054;2023-11-21T10:31:49;8.53;;;4.30;;
5345;SDS011;2695;49.444;11.054;2023-11-21T10:34:18;5.47;;;4.10;;
5345;SDS011;2695;49.444;11.054;2023-11-21T10:36:47;6.70;;;4.27;;
5345;SDS011;2695;49.444;11.054;2023-11-21T10:39:16;7.67;;;5.17;;
5345;SDS011;2695;49.444;11.054;2023-11-21T10:41:45;4.50;;;4.10;;
5345;SDS011;2695;49.444;11.054;2023-11-21T10:44:14;7.43;;;4.90;;
5345;SDS011;2695;49.444;11.054;2023-11-21T10:46:49;11.40;;;5.00;;
5345;SDS011;2695;49.444;11.054;2023-11-21T10:49:20;9.23;;;4.00;;
5345;SDS011;2695;49.444;11.054;2023-11-21T10:51:51;6.40;;;4.87;;
5345;SDS011;2695;49.444;11.054;2023-11-21T10:54:20;8.83;;;5.23;;
5345;SDS011;2695;49.444;11.054;2023-11-21T10:56:50;10.40;;;4.50;;
5345;SDS011;2695;49.444;11.054;2023-11-21T10:59:20;6.30;;;4.43;;
5345;SDS011;2695;49.444;11.054;2023-11-21T11:01:53;6.00;;;4.20;;
5345;SDS011;2695;49.444;11.054;2023-11-21T11:04:24;7.60;;;3.93;;
5345;SDS011;2695;49.444;11.054;2023-11-21T11:06:55;7.40;;;4.80;;
5345;SDS011;2695;49.444;11.054;2023-11-21T11:09:27;6.10;;;3.93;;
5345;SDS011;2695;49.444;11.054;2023-11-21T11:11:56;8.13;;;4.80;;
5345;SDS011;2695;49.444;11.054;2023-11-21T11:14:25;4.67;;;3.57;;
5345;SDS011;2695;49.444;11.054;2023-11-21T11:16:55;4.93;;;3.33;;
5345;SDS011;2695;49.444;11.054;2023-11-21T11:19:24;3.63;;;2.67;;
5345;SDS011;2695;49.444;11.054;2023-11-21T11:21:55;8.90;;;4.70;;
5345;SDS011;2695;49.444;11.054;2023-11-21T11:24:44;4.37;;;2.93;;
5345;SDS011;2695;49.444;11.054;2023-11-21T11:27:28;2.57;;;2.33;;
5345;SDS011;2695;49.444;11.054;2023-11-21T11:30:11;2.90;;;2.47;;
5345;SDS011;2695;49.444;11.054;2023-11-21T11:32:50;7.33;;;2.77;;
5345;SDS011;2695;49.444;11.054;2023-11-21T11:35:26;9.57;;;3.40;;
5345;SDS011;2695;49.444;11.054;2023-11-21T11:38:01;5.23;;;2.40;;
5345;SDS011;2695;49.444;11.054;2023-11-21T11:40:39;2.20;;;1.93;;
5345;SDS011;2695;49.444;11.054;2023-11-21T11:43:08;3.20;;;2.53;;
5345;SDS011;2695;49.444;11.054;2023-11-21T11:45:36;3.30;;;2.50;;
5345;SDS011;2695;49.444;11.054;2023-11-21T11:48:10;3.53;;;3.07;;
5345;SDS011;2695;49.444;11.054;2023-11-21T11:53:38;6.93;;;2.73;;
5345;SDS011;2695;49.444;11.054;2023-11-21T11:56:21;3.27;;;2.90;;
5345;SDS011;2695;49.444;11.054;2023-11-21T11:58:52;5.80;;;3.43;;
5345;SDS011;2695;49.444;11.054;2023-11-21T12:01:22;4.23;;;3.03;;
5345;SDS011;2695;49.444;11.054;2023-11-21T12:07:01;3.80;;;3.40;;
5345;SDS011;2695;49.444;11.054;2023-11-21T12:09:30;4.30;;;2.73;;
5345;SDS011;2695;49.444;11.054;2023-11-21T12:11:59;2.73;;;2.53;;
5345;SDS011;2695;49.444;11.054;2023-11-21T12:14:28;6.43;;;2.90;;
5345;SDS011;2695;49.444;11.054;2023-11-21T12:16:57;4.80;;;3.10;;
5345;SDS011;2695;49.444;11.054;2023-11-21T12:19:27;3.23;;;2.90;;
5345;SDS011;2695;49.444;11.054;2023-11-21T12:21:55;4.17;;;3.77;;
5345;SDS011;2695;49.444;11.054;2023-11-21T12:24:24;4.00;;;3.40;;
5345;SDS011;2695;49.444;11.054;2023-11-21T12:26:54;6.37;;;4.10;;
5345;SDS011;2695;49.444;11.054;2023-11-21T12:29:21;4.70;;;3.37;;
5345;SDS011;2695;49.444;11.054;2023-11-21T12:31:49;5.13;;;4.10;;
5345;SDS011;2695;49.444;11.054;2023-11-21T12:34:18;3.57;;;3.00;;
5345;SDS011;2695;49.444;11.054;2023-11-21T12:36:48;8.70;;;3.60;;
5345;SDS011;2695;49.444;11.054;2023-11-21T12:39:17;4.53;;;3.30;;
5345;SDS011;2695;49.444;11.054;2023-11-21T12:41:48;4.93;;;4.27;;
5345;SDS011;2695;49.444;11.054;2023-11-21T12:44:16;9.77;;;4.87;;
5345;SDS011;2695;49.444;11.054;2023-11-21T12:46:44;3.97;;;3.57;;
5345;SDS011;2695;49.444;11.054;2023-11-21T12:49:13;13.53;;;6.77;;
5345;SDS011;2695;49.444;11.054;2023-11-21T12:51:45;4.73;;;4.00;;
5345;SDS011;2695;49.444;11.054;2023-11-21T12:54:14;5.20;;;3.60;;
5345;SDS011;2695;49.444;11.054;2023-11-21T12:56:45;5.77;;;3.93;;
5345;SDS011;2695;49.444;11.054;2023-11-21T12:59:15;9.97;;;4.10;;
5345;SDS011;2695;49.444;11.054;2023-11-21T13:01:44;4.93;;;3.93;;
5345;SDS011;2695;49.444;11.054;2023-11-21T13:04:13;6.53;;;4.43;;
5345;SDS011;2695;49.444;11.054;2023-11-21T13:06:41;7.00;;;4.80;;
5345;SDS011;2695;49.444;11.054;2023-11-21T13:09:09;15.87;;;4.33;;
5345;SDS011;2695;49.444;11.054;2023-11-21T13:11:39;4.47;;;3.40;;
5345;SDS011;2695;49.444;11.054;2023-11-21T13:14:07;4.37;;;3.97;;
5345;SDS011;2695;49.444;11.054;2023-11-21T13:16:36;9.60;;;3.83;;
5345;SDS011;2695;49.444;11.054;2023-11-21T13:19:05;4.23;;;3.37;;
5345;SDS011;2695;49.444;11.054;2023-11-21T13:21:35;5.27;;;3.30;;
5345;SDS011;2695;49.444;11.054;2023-11-21T13:24:06;7.30;;;3.50;;
5345;SDS011;2695;49.444;11.054;2023-11-21T13:26:36;5.30;;;3.57;;
5345;SDS011;2695;49.444;11.054;2023-11-21T13:29:06;4.20;;;3.10;;
5345;SDS011;2695;49.444;11.054;2023-11-21T13:31:41;4.80;;;3.07;;
5345;SDS011;2695;49.444;11.054;2023-11-21T13:34:10;6.00;;;3.43;;
5345;SDS011;2695;49.444;11.054;2023-11-21T13:36:46;4.07;;;3.33;;
5345;SDS011;2695;49.444;11.054;2023-11-21T13:39:14;6.40;;;3.30;;
5345;SDS011;2695;49.444;11.054;2023-11-21T13:41:44;6.83;;;4.10;;
5345;SDS011;2695;49.444;11.054;2023-11-21T13:44:16;6.97;;;3.27;;
5345;SDS011;2695;49.444;11.054;2023-11-21T13:46:53;6.03;;;3.87;;
5345;SDS011;2695;49.444;11.054;2023-11-21T13:49:24;6.10;;;3.50;;
5345;SDS011;2695;49.444;11.054;2023-11-21T13:51:53;5.53;;;3.87;;
5345;SDS011;2695;49.444;11.054;2023-11-21T13:54:22;4.43;;;3.00;;
5345;SDS011;2695;49.444;11.054;2023-11-21T13:56:51;4.10;;;3.00;;
5345;SDS011;2695;49.444;11.054;2023-11-21T13:59:23;3.00;;;2.37;;
5345;SDS011;2695;49.444;11.054;2023-11-21T14:01:54;4.20;;;3.03;;
5345;SDS011;2695;49.444;11.054;2023-11-21T14:04:26;3.70;;;2.37;;
5345;SDS011;2695;49.444;11.054;2023-11-21T14:07:29;4.00;;;2.73;;
5345;SDS011;2695;49.444;11.054;2023-11-21T14:10:04;5.30;;;2.97;;
5345;SDS011;2695;49.444;11.054;2023-11-21T14:12:39;4.37;;;2.57;;
5345;SDS011;2695;49.444;11.054;2023-11-21T14:15:10;11.97;;;2.50;;
5345;SDS011;2695;49.444;11.054;2023-11-21T14:17:43;2.50;;;2.30;;
5345;SDS011;2695;49.444;11.054;2023-11-21T14:20:11;4.00;;;2.90;;
5345;SDS011;2695;49.444;11.054;2023-11-21T14:22:43;4.27;;;2.27;;
5345;SDS011;2695;49.444;11.054;2023-11-21T14:25:12;5.90;;;4.23;;
5345;SDS011;2695;49.444;11.054;2023-11-21T14:27:41;2.87;;;2.50;;
5345;SDS011;2695;49.444;11.054;2023-11-21T14:30:11;2.10;;;1.83;;
5345;SDS011;2695;49.444;11.054;2023-11-21T14:32:40;4.63;;;2.23;;
5345;SDS011;2695;49.444;11.054;2023-11-21T14:35:11;4.73;;;2.30;;
5345;SDS011;2695;49.444;11.054;2023-11-21T14:37:40;2.20;;;2.00;;
5345;SDS011;2695;49.444;11.054;2023-11-21T14:40:09;3.00;;;2.40;;
5345;SDS011;2695;49.444;11.054;2023-11-21T14:42:38;3.27;;;2.27;;
5345;SDS011;2695;49.444;11.054;2023-11-21T14:45:08;3.67;;;2.83;;
5345;SDS011;2695;49.444;11.054;2023-11-21T14:47:39;5.20;;;2.97;;
5345;SDS011;2695;49.444;11.054;2023-11-21T14:50:13;3.43;;;2.73;;
5345;SDS011;2695;49.444;11.054;2023-11-21T14:52:55;10.03;;;3.10;;
5345;SDS011;2695;49.444;11.054;2023-11-21T14:55:27;3.63;;;2.90;;
5345;SDS011;2695;49.444;11.054;2023-11-21T14:57:58;5.67;;;3.33;;
5345;SDS011;2695;49.444;11.054;2023-11-21T15:00:32;3.20;;;2.33;;
5345;SDS011;2695;49.444;11.054;2023-11-21T15:03:11;5.10;;;3.00;;
5345;SDS011;2695;49.444;11.054;2023-11-21T15:06:04;4.57;;;2.63;;
5345;SDS011;2695;49.444;11.054;2023-11-21T15:08:49;4.47;;;2.17;;
5345;SDS011;2695;49.444;11.054;2023-11-21T15:11:25;10.43;;;2.23;;
5345;SDS011;2695;49.444;11.054;2023-11-21T15:14:03;4.37;;;2.93;;
5345;SDS011;2695;49.444;11.054;2023-11-21T15:16:36;3.83;;;2.50;;
5345;SDS011;2695;49.444;11.054;2023-11-21T15:19:09;4.67;;;2.60;;
5345;SDS011;2695;49.444;11.054;2023-11-21T15:21:44;9.13;;;2.77;;